Time;durP1;ratioP1;P1;durP2;ratioP2;P2;SDS_P1;SDS_P2;PMS_P1;PMS_P2;Temp;Humidity;BMP_temperature;BMP_pressure;BME280_temperature;BME280_humidity;BME280_pressure;Samples;Min_cycle;Max_cycle;Signal;HPM_P1;HPM_P2
2021/07/16 00:00:21;;;;;;;16.30;5.93;;;;;;;24.70;96.40;100916.56;5005191;28;20030;-75
2021/07/16 00:02:49;;;;;;;16.38;6.10;;;;;;;24.72;96.67;100910.63;5002459;28;20030;-75
2021/07/16 00:05:15;;;;;;;19.42;6.47;;;;;;;24.69;96.85;100914.25;4993998;28;20049;-75
2021/07/16 00:07:41;;;;;;;19.17;5.95;;;;;;;24.65;96.93;100921.84;5002498;28;20041;-76
2021/07/16 00:10:10;;;;;;;17.23;5.75;;;;;;;24.63;96.65;100911.28;4999862;28;20057;-75
2021/07/16 00:12:38;;;;;;;20.73;6.80;;;;;;;24.65;96.14;100917.13;5012826;28;20049;-75
2021/07/16 00:15:07;;;;;;;20.90;6.03;;;;;;;24.65;96.06;100917.13;5021353;28;20025;-75
2021/07/16 00:17:33;;;;;;;16.27;6.07;;;;;;;24.60;96.39;100923.19;5015793;28;20432;-75
2021/07/16 00:19:58;;;;;;;16.65;5.47;;;;;;;24.65;95.73;100913.59;5014199;28;20034;-75
2021/07/16 00:22:24;;;;;;;18.77;5.55;;;;;;;24.62;95.49;100917.25;5011557;28;20495;-75
2021/07/16 00:24:49;;;;;;;22.33;5.93;;;;;;;24.54;95.72;100918.69;5017466;28;20397;-75
2021/07/16 00:27:15;;;;;;;22.15;5.13;;;;;;;24.53;95.73;100912.41;5011283;28;20029;-75
2021/07/16 00:29:41;;;;;;;17.02;4.88;;;;;;;24.57;95.59;100912.28;5011880;28;20044;-75
2021/07/16 00:32:06;;;;;;;18.45;5.00;;;;;;;24.54;95.34;100904.91;5012348;28;20033;-75
2021/07/16 00:34:32;;;;;;;25.48;5.78;;;;;;;24.56;95.30;100908.00;5008085;28;20055;-75
2021/07/16 00:36:58;;;;;;;19.40;5.38;;;;;;;24.57;94.41;100909.53;5007765;28;20033;-75
2021/07/16 00:39:23;;;;;;;16.67;5.68;;;;;;;24.46;95.07;100911.88;5011505;28;20034;-75
2021/07/16 00:41:48;;;;;;;16.23;5.20;;;;;;;24.35;95.55;100916.97;5003206;28;20034;-75
2021/07/16 00:44:17;;;;;;;20.02;5.45;;;;;;;24.28;95.46;100922.69;5009114;28;20033;-75
2021/07/16 00:46:42;;;;;;;20.80;5.05;;;;;;;24.23;95.72;100921.25;5020486;28;20033;-75
2021/07/16 00:49:08;;;;;;;14.48;5.47;;;;;;;24.18;95.69;100928.09;5003555;28;20100;-75
2021/07/16 00:51:33;;;;;;;24.65;5.43;;;;;;;24.10;96.00;100929.50;5001903;28;20452;-75
2021/07/16 00:53:59;;;;;;;14.10;5.03;;;;;;;24.03;96.24;100921.47;5005572;28;20034;-75
2021/07/16 00:56:25;;;;;;;20.05;5.68;;;;;;;24.02;95.62;100924.69;5019609;28;20493;-75
2021/07/16 00:58:51;;;;;;;16.95;5.50;;;;;;;24.08;94.94;100928.41;5008889;28;20115;-75
2021/07/16 01:01:16;;;;;;;13.25;5.18;;;;;;;24.12;94.29;100932.59;5001166;28;20069;-75
2021/07/16 01:03:42;;;;;;;14.48;5.40;;;;;;;24.06;95.03;100934.34;5013858;28;20512;-75
2021/07/16 01:06:08;;;;;;;17.85;5.05;;;;;;;23.88;95.38;100938.84;5002374;28;20530;-75
2021/07/16 01:08:33;;;;;;;18.02;5.40;;;;;;;23.70;95.89;100933.06;5022954;28;20025;-75
2021/07/16 01:10:59;;;;;;;16.90;5.65;;;;;;;23.78;95.63;100932.44;5010883;28;20030;-75
2021/07/16 01:13:25;;;;;;;18.95;5.63;;;;;;;23.84;94.69;100938.16;5010840;28;20041;-75
2021/07/16 01:15:51;;;;;;;17.42;5.38;;;;;;;23.69;95.47;100937.03;5000804;28;20041;-75
2021/07/16 01:18:17;;;;;;;16.30;5.80;;;;;;;23.78;94.72;100948.94;5015387;28;20073;-75
2021/07/16 01:20:44;;;;;;;14.30;5.43;;;;;;;23.81;94.50;100941.81;5020054;28;20065;-75
2021/07/16 01:23:17;;;;;;;15.30;5.93;;;;;;;23.77;94.65;100950.13;4998968;28;20496;-75
2021/07/16 01:25:42;;;;;;;16.58;5.80;;;;;;;23.68;95.07;100950.03;5006452;28;20057;-75
2021/07/16 01:28:08;;;;;;;17.08;5.32;;;;;;;23.64;94.87;100948.56;4999203;28;20038;-75
2021/07/16 01:30:34;;;;;;;16.15;4.82;;;;;;;23.62;95.12;100950.97;5021818;28;20057;-75
2021/07/16 01:33:01;;;;;;;16.70;5.18;;;;;;;23.60;95.10;100945.16;5008566;28;20092;-75
2021/07/16 01:35:28;;;;;;;18.42;5.88;;;;;;;23.52;95.54;100955.56;5006218;28;20041;-75
2021/07/16 01:37:54;;;;;;;21.75;5.60;;;;;;;23.38;96.40;100950.50;4992293;28;20141;-75
2021/07/16 01:40:22;;;;;;;19.60;5.47;;;;;;;23.40;96.46;100952.81;5007133;28;20132;-75
2021/07/16 01:42:56;;;;;;;21.05;5.78;;;;;;;23.31;96.30;100953.41;5018332;28;20034;-75
2021/07/16 01:45:24;;;;;;;18.33;5.32;;;;;;;23.39;95.86;100946.53;5016216;28;20087;-75
2021/07/16 01:48:02;;;;;;;14.38;5.28;;;;;;;23.28;96.17;100946.78;5016280;28;20064;-75
2021/07/16 01:50:29;;;;;;;12.00;5.03;;;;;;;23.28;96.48;100946.03;5008306;28;20048;-75
2021/07/16 01:52:55;;;;;;;20.77;6.10;;;;;;;23.32;95.65;100946.72;5013417;28;20483;-75
2021/07/16 01:55:22;;;;;;;20.33;5.65;;;;;;;23.29;95.65;100942.06;5010469;28;20030;-75
2021/07/16 01:57:53;;;;;;;21.20;6.13;;;;;;;23.28;95.41;100935.81;5028633;28;20044;-75
2021/07/16 02:00:23;;;;;;;18.02;5.78;;;;;;;23.23;95.24;100944.56;5021628;28;20109;-75
2021/07/16 02:02:56;;;;;;;21.35;6.10;;;;;;;23.21;95.55;100946.19;5019829;28;20033;-75
2021/07/16 02:05:24;;;;;;;16.65;5.78;;;;;;;23.16;95.81;100955.75;5003144;28;20053;-76
2021/07/16 02:07:51;;;;;;;16.80;5.38;;;;;;;23.20;95.51;100959.19;5010690;28;20042;-75
2021/07/16 02:10:18;;;;;;;18.83;5.78;;;;;;;23.16;94.86;100961.25;5017264;28;20125;-74
2021/07/16 02:12:43;;;;;;;18.98;5.82;;;;;;;23.13;95.33;100970.34;5008012;28;20034;-74
2021/07/16 02:15:17;;;;;;;13.05;5.35;;;;;;;23.13;95.17;100969.59;5007471;28;20022;-74
2021/07/16 02:17:44;;;;;;;17.52;6.07;;;;;;;23.05;95.47;100960.00;5018439;28;20111;-74
2021/07/16 02:20:36;;;;;;;17.45;6.13;;;;;;;22.94;95.40;100968.50;5014653;28;20037;-74
2021/07/16 02:23:05;;;;;;;13.93;5.07;;;;;;;22.98;95.20;100969.19;5005310;28;20038;-75
2021/07/16 02:25:30;;;;;;;16.40;5.80;;;;;;;22.98;95.02;100966.44;5001513;28;20041;-75
2021/07/16 02:28:04;;;;;;;18.27;5.47;;;;;;;22.95;94.98;100977.50;5012838;28;20697;-75
2021/07/16 02:30:29;;;;;;;14.70;5.25;;;;;;;22.86;95.29;100969.88;5007716;28;20114;-75
2021/07/16 02:32:57;;;;;;;14.23;5.15;;;;;;;22.88;95.59;100970.22;5006189;28;20498;-75
2021/07/16 02:35:23;;;;;;;22.55;6.13;;;;;;;22.82;95.18;100969.19;5009916;28;20029;-75
2021/07/16 02:37:49;;;;;;;15.50;5.53;;;;;;;22.79;95.24;100977.53;5009597;28;20189;-75
2021/07/16 02:40:15;;;;;;;20.42;5.03;;;;;;;22.71;96.20;100982.41;5011212;28;20032;-75
2021/07/16 02:42:42;;;;;;;14.70;5.32;;;;;;;22.79;95.42;100981.03;5009817;28;20034;-75
2021/07/16 02:45:14;;;;;;;22.27;6.03;;;;;;;22.82;94.73;100985.66;5024066;28;20121;-75
2021/07/16 02:47:40;;;;;;;17.02;6.00;;;;;;;22.81;94.79;100986.88;5010022;28;20053;-75
2021/07/16 02:50:09;;;;;;;18.88;5.75;;;;;;;22.76;95.23;100983.88;5031542;28;20033;-75
2021/07/16 02:52:34;;;;;;;24.13;5.88;;;;;;;22.69;95.55;100987.56;5013350;28;20065;-75
2021/07/16 02:55:00;;;;;;;18.08;5.55;;;;;;;22.64;95.49;100984.56;5010050;28;20053;-75
2021/07/16 02:57:26;;;;;;;16.95;5.60;;;;;;;22.45;96.46;100999.88;5015406;28;20030;-75
2021/07/16 02:59:51;;;;;;;23.10;5.63;;;;;;;22.37;97.60;101002.03;5016151;28;20135;-75
2021/07/16 03:02:17;;;;;;;17.88;5.50;;;;;;;22.44;96.74;100998.31;5013560;28;20029;-75
2021/07/16 03:04:43;;;;;;;13.93;5.22;;;;;;;22.36;96.94;101000.47;5012549;28;20025;-75
2021/07/16 03:07:09;;;;;;;21.55;5.93;;;;;;;22.34;96.94;100996.59;4997448;28;20453;-75
2021/07/16 03:09:34;;;;;;;13.30;5.15;;;;;;;22.48;96.40;100995.50;5018499;28;20117;-75
2021/07/16 03:12:03;;;;;;;13.88;5.78;;;;;;;22.39;96.54;100994.13;5010099;28;20460;-75
2021/07/16 03:14:29;;;;;;;17.00;5.65;;;;;;;22.39;96.94;100998.84;5011521;28;20061;-75
2021/07/16 03:16:55;;;;;;;16.40;5.32;;;;;;;22.29;97.09;101008.88;5010822;28;20111;-75
2021/07/16 03:19:20;;;;;;;21.52;5.47;;;;;;;22.30;96.87;101012.38;5006975;28;20056;-75
2021/07/16 03:21:46;;;;;;;17.98;5.45;;;;;;;22.36;96.37;101013.41;5012051;28;20076;-75
2021/07/16 03:24:11;;;;;;;24.08;5.80;;;;;;;22.37;96.60;101020.47;5010701;28;20453;-75
2021/07/16 03:26:38;;;;;;;20.05;5.70;;;;;;;22.31;96.53;101022.16;5017191;28;20112;-75
2021/07/16 03:29:04;;;;;;;21.75;5.72;;;;;;;22.30;96.39;101023.34;5025168;28;20034;-74
2021/07/16 03:31:30;;;;;;;15.55;5.00;;;;;;;22.32;96.44;101034.66;5016274;28;20033;-74
2021/07/16 03:33:55;;;;;;;18.70;5.60;;;;;;;22.26;96.71;101031.66;5012134;28;20612;-74
2021/07/16 03:36:21;;;;;;;17.73;5.88;;;;;;;22.24;97.33;101028.56;5010443;28;20091;-75
2021/07/16 03:38:47;;;;;;;18.17;5.38;;;;;;;22.29;95.89;101028.09;4993573;28;20046;-75
2021/07/16 03:41:14;;;;;;;17.70;5.03;;;;;;;22.31;96.11;101030.38;5010208;28;20600;-75
2021/07/16 03:43:39;;;;;;;24.88;5.90;;;;;;;22.31;95.88;101031.19;5006219;28;20030;-74
2021/07/16 03:46:05;;;;;;;16.33;5.32;;;;;;;22.32;95.00;101029.97;5013551;28;20482;-75
2021/07/16 03:48:32;;;;;;;18.13;5.00;;;;;;;22.18;96.39;101040.47;5005353;28;20072;-75
2021/07/16 03:50:58;;;;;;;14.55;5.07;;;;;;;22.17;97.20;101036.19;5017664;28;20037;-75
2021/07/16 03:53:23;;;;;;;17.00;4.80;;;;;;;22.13;97.19;101044.50;5015286;28;20038;-75
2021/07/16 03:55:48;;;;;;;15.23;5.43;;;;;;;22.21;97.45;101037.66;5010926;28;20474;-75
2021/07/16 03:58:14;;;;;;;14.57;5.45;;;;;;;22.17;97.14;101034.22;4994907;28;20144;-75
2021/07/16 04:00:39;;;;;;;16.63;5.25;;;;;;;22.16;97.39;101037.38;5002954;28;20033;-75
2021/07/16 04:03:05;;;;;;;17.75;5.47;;;;;;;22.26;96.28;101039.13;5019589;28;20044;-75
2021/07/16 04:05:32;;;;;;;19.55;6.00;;;;;;;22.29;96.21;101038.28;5011775;28;20034;-75
2021/07/16 04:08:04;;;;;;;22.23;5.80;;;;;;;22.32;96.43;101046.44;5000207;28;20036;-75
2021/07/16 04:10:31;;;;;;;18.80;5.45;;;;;;;22.38;95.53;101043.94;5012964;28;20038;-75
2021/07/16 04:12:59;;;;;;;21.77;5.45;;;;;;;22.41;95.14;101048.59;5005532;28;20060;-74
2021/07/16 04:15:26;;;;;;;16.90;5.35;;;;;;;22.48;94.69;101050.41;5002460;28;20030;-75
2021/07/16 04:17:52;;;;;;;20.25;5.82;;;;;;;22.46;95.01;101050.84;5033047;28;20037;-75
2021/07/16 04:20:18;;;;;;;13.23;5.10;;;;;;;22.52;95.06;101049.13;5012313;28;20077;-75
2021/07/16 04:22:45;;;;;;;19.63;5.07;;;;;;;22.53;94.65;101047.94;5007812;28;20437;-75
2021/07/16 04:25:14;;;;;;;16.65;5.55;;;;;;;22.61;93.82;101057.59;5003740;28;20041;-75
2021/07/16 04:27:41;;;;;;;12.05;4.80;;;;;;;22.60;94.27;101055.28;5009297;28;20045;-76
2021/07/16 04:30:08;;;;;;;18.48;5.18;;;;;;;22.59;94.47;101054.50;5002595;28;20038;-75
2021/07/16 04:32:34;;;;;;;17.08;5.43;;;;;;;22.60;93.79;101055.28;5010524;28;20037;-75
2021/07/16 04:34:59;;;;;;;19.48;5.13;;;;;;;22.63;93.40;101048.94;5010430;28;20041;-75
2021/07/16 04:37:25;;;;;;;15.77;5.32;;;;;;;22.63;93.25;101057.94;5013257;28;20115;-75
2021/07/16 04:39:50;;;;;;;14.48;5.13;;;;;;;22.67;93.22;101055.88;5017670;28;20418;-75
2021/07/16 04:42:16;;;;;;;16.08;5.00;;;;;;;22.68;93.57;101046.47;5005172;28;20044;-75
2021/07/16 04:44:41;;;;;;;14.93;5.63;;;;;;;22.77;93.00;101054.09;5021345;28;20038;-75
2021/07/16 04:47:07;;;;;;;21.67;5.43;;;;;;;22.84;92.42;101054.69;5013853;28;20088;-74
2021/07/16 04:49:33;;;;;;;18.35;5.25;;;;;;;22.97;91.67;101052.06;4994699;28;20042;-75
2021/07/16 04:52:00;;;;;;;24.67;6.03;;;;;;;22.93;91.60;101057.63;5014381;28;20113;-74
2021/07/16 04:54:26;;;;;;;20.08;5.68;;;;;;;22.86;91.69;101057.78;5013562;28;20434;-75
2021/07/16 04:56:52;;;;;;;21.02;6.28;;;;;;;22.86;92.11;101057.78;5010816;28;20104;-74
2021/07/16 04:59:17;;;;;;;16.05;5.68;;;;;;;22.86;92.16;101063.28;5004303;28;20105;-75
2021/07/16 05:01:43;;;;;;;18.65;6.25;;;;;;;22.79;92.78;101071.69;5007384;28;20118;-75
2021/07/16 05:04:09;;;;;;;18.95;6.03;;;;;;;22.82;92.47;101062.59;5011451;28;20033;-75
2021/07/16 05:06:34;;;;;;;24.65;5.88;;;;;;;23.11;89.99;101063.47;5002672;28;20046;-75
2021/07/16 05:09:00;;;;;;;16.13;5.80;;;;;;;23.22;89.66;101063.22;5004555;28;20034;-75
2021/07/16 05:11:25;;;;;;;19.17;5.53;;;;;;;23.30;88.87;101061.84;5007429;28;20030;-75
2021/07/16 05:13:51;;;;;;;16.00;5.32;;;;;;;23.16;90.01;101071.22;5010752;28;20035;-75
2021/07/16 05:16:17;;;;;;;21.00;6.15;;;;;;;23.21;90.01;101073.44;5009703;28;20033;-74
2021/07/16 05:18:43;;;;;;;18.35;5.45;;;;;;;23.38;89.21;101065.19;5025902;28;20026;-74
2021/07/16 05:21:10;;;;;;;14.45;5.40;;;;;;;23.56;88.23;101071.00;5014492;28;20030;-74
2021/07/16 05:23:36;;;;;;;21.33;6.25;;;;;;;23.49;88.84;101071.19;5011316;28;20034;-75
2021/07/16 05:26:03;;;;;;;20.08;5.82;;;;;;;23.55;88.55;101077.72;5011666;28;20437;-75
2021/07/16 05:28:28;;;;;;;17.60;5.75;;;;;;;23.53;87.95;101074.63;5010552;28;20030;-75
2021/07/16 05:30:54;;;;;;;18.13;5.28;;;;;;;23.58;87.33;101077.63;5012387;28;20029;-76
2021/07/16 05:33:20;;;;;;;17.92;6.15;;;;;;;23.57;87.49;101080.81;5011441;28;20044;-75
2021/07/16 05:35:46;;;;;;;20.08;5.90;;;;;;;23.74;87.31;101082.31;5013686;28;20394;-75
2021/07/16 05:38:12;;;;;;;21.15;6.05;;;;;;;23.87;86.68;101077.63;5001946;28;20480;-76
2021/07/16 05:40:38;;;;;;;19.88;4.80;;;;;;;24.15;85.40;101083.16;5017529;28;20104;-75
2021/07/16 05:43:11;;;;;;;22.08;5.80;;;;;;;24.58;83.18;101090.94;5017807;28;20034;-75
2021/07/16 05:45:39;;;;;;;17.92;5.30;;;;;;;24.75;82.66;101088.88;5014203;28;20030;-75
2021/07/16 05:48:06;;;;;;;16.67;5.10;;;;;;;25.11;81.20;101089.28;5003753;28;20026;-74
2021/07/16 05:50:32;;;;;;;19.30;4.65;;;;;;;25.48;79.81;101093.19;5016463;28;20037;-74
2021/07/16 05:52:58;;;;;;;18.23;5.20;;;;;;;25.92;76.97;101086.50;5023371;28;20445;-74
2021/07/16 05:55:24;;;;;;;21.65;5.28;;;;;;;26.07;76.36;101098.66;5012773;28;20481;-75
2021/07/16 05:57:49;;;;;;;16.77;4.88;;;;;;;26.21;75.73;101100.88;5007783;28;20046;-76
2021/07/16 06:00:16;;;;;;;18.58;5.05;;;;;;;26.50;74.96;101109.63;5009281;28;20028;-75
2021/07/16 06:02:41;;;;;;;16.15;5.20;;;;;;;26.79;73.60;101115.63;5004932;28;20044;-77
2021/07/16 06:05:07;;;;;;;13.73;4.78;;;;;;;26.87;72.05;101110.59;5008385;28;20117;-75
2021/07/16 06:07:33;;;;;;;20.55;5.40;;;;;;;26.68;72.36;101114.47;5012338;28;20029;-75
2021/07/16 06:09:58;;;;;;;15.20;4.40;;;;;;;26.19;75.58;101114.34;5009187;28;20026;-75
2021/07/16 06:12:24;;;;;;;17.73;4.30;;;;;;;26.01;77.24;101119.75;5018381;28;20394;-76
2021/07/16 06:14:56;;;;;;;25.42;5.43;;;;;;;26.16;75.53;101123.56;5017625;28;20043;-75
2021/07/16 06:17:23;;;;;;;22.92;4.75;;;;;;;26.35;74.56;101129.97;5011378;28;20405;-76
2021/07/16 06:19:49;;;;;;;25.50;4.70;;;;;;;26.35;74.89;101121.66;5009537;28;20017;-76
2021/07/16 06:22:15;;;;;;;14.23;4.38;;;;;;;26.52;74.76;101131.28;5011669;28;20037;-76
2021/07/16 06:24:40;;;;;;;19.33;4.65;;;;;;;26.63;73.60;101132.44;5011506;28;20075;-75
2021/07/16 06:27:06;;;;;;;18.10;4.78;;;;;;;26.71;74.04;101124.69;5009305;28;20033;-75
2021/07/16 06:29:32;;;;;;;18.95;5.07;;;;;;;26.79;72.88;101125.91;5011435;28;20058;-75
2021/07/16 06:31:57;;;;;;;17.48;4.78;;;;;;;26.90;73.69;101125.50;5021539;28;20033;-76
2021/07/16 06:34:24;;;;;;;22.23;4.47;;;;;;;27.02;73.57;101127.41;5001784;28;20060;-78
2021/07/16 06:36:50;;;;;;;19.42;4.90;;;;;;;27.15;72.88;101123.31;5005503;28;20041;-76
2021/07/16 06:39:15;;;;;;;20.67;4.80;;;;;;;27.35;72.26;101131.22;5024010;28;20026;-76
2021/07/16 06:41:41;;;;;;;18.98;4.30;;;;;;;27.40;71.04;101136.94;5013776;28;20401;-78
2021/07/16 06:44:08;;;;;;;19.17;4.50;;;;;;;27.25;71.30;101137.94;5012255;28;20101;-76
2021/07/16 06:46:34;;;;;;;18.00;4.30;;;;;;;27.00;72.38;101143.69;5013170;28;20037;-76
2021/07/16 06:49:00;;;;;;;25.33;5.32;;;;;;;26.90;72.69;101142.88;5019393;28;20034;-76
2021/07/16 06:51:25;;;;;;;19.38;5.07;;;;;;;26.78;73.37;101140.97;5009375;28;20091;-77
2021/07/16 06:53:51;;;;;;;18.65;5.07;;;;;;;26.65;74.22;101151.34;5016552;28;20038;-76
2021/07/16 06:56:16;;;;;;;17.40;4.03;;;;;;;26.60;74.38;101154.69;5018203;28;20038;-76
2021/07/16 06:58:42;;;;;;;25.08;5.47;;;;;;;26.45;74.68;101150.91;5011206;28;20029;-77
2021/07/16 07:01:08;;;;;;;22.42;4.53;;;;;;;26.38;75.48;101151.97;5017886;28;20101;-76
2021/07/16 07:03:33;;;;;;;17.63;5.03;;;;;;;26.23;76.06;101156.44;5012002;28;20398;-76
2021/07/16 07:05:59;;;;;;;21.48;5.15;;;;;;;26.20;75.67;101157.34;5001863;28;20038;-76
2021/07/16 07:08:25;;;;;;;18.88;5.03;;;;;;;26.16;75.78;101158.69;5004267;28;20044;-76
2021/07/16 07:10:51;;;;;;;17.20;5.28;;;;;;;25.98;77.05;101166.81;5021967;28;20104;-76
2021/07/16 07:13:17;;;;;;;21.80;5.53;;;;;;;25.88;77.10;101165.94;5007337;28;20041;-76
2021/07/16 07:15:43;;;;;;;25.48;5.28;;;;;;;25.89;76.62;101162.75;5001795;28;20048;-77
2021/07/16 07:18:09;;;;;;;13.73;4.60;;;;;;;25.89;77.08;101156.44;5020591;28;20033;-77
2021/07/16 07:20:36;;;;;;;20.63;5.10;;;;;;;26.14;76.31;101158.34;5032448;28;20025;-77
2021/07/16 07:23:03;;;;;;;19.15;5.05;;;;;;;26.27;75.75;101157.06;5006291;28;20069;-77
2021/07/16 07:25:29;;;;;;;23.25;5.22;;;;;;;26.29;75.59;101162.16;5004240;28;20025;-77
2021/07/16 07:27:54;;;;;;;22.90;5.28;;;;;;;26.26;76.11;101176.88;4995660;28;20030;-77
2021/07/16 07:30:20;;;;;;;21.00;4.57;;;;;;;26.43;76.35;101181.75;5011256;28;20031;-78
2021/07/16 07:32:46;;;;;;;23.50;4.80;;;;;;;26.59;76.00;101184.34;5000913;28;20410;-77
2021/07/16 07:35:13;;;;;;;21.10;5.35;;;;;;;26.73;76.15;101183.81;5000508;28;20490;-77
2021/07/16 07:37:39;;;;;;;20.67;5.10;;;;;;;26.84;75.33;101182.63;5010646;28;20125;-77
2021/07/16 07:40:09;;;;;;;17.60;5.07;;;;;;;26.97;74.02;101177.78;5011294;28;20018;-77
2021/07/16 07:42:35;;;;;;;18.90;4.57;;;;;;;27.21;72.59;101187.88;4998715;28;20523;-77
2021/07/16 07:45:00;;;;;;;23.10;4.97;;;;;;;27.21;72.67;101176.03;5017997;28;20026;-77
2021/07/16 07:47:31;;;;;;;20.75;4.90;;;;;;;27.30;72.34;101187.13;4995711;28;20026;-77
2021/07/16 07:49:57;;;;;;;;;;;;;;;27.21;71.56;101181.56;5030047;28;20057;-77
2021/07/16 07:52:22;;;;;;;16.00;4.90;;;;;;;27.41;72.64;101184.75;5000529;28;19913;-77
2021/07/16 07:54:48;;;;;;;17.90;4.65;;;;;;;27.18;73.56;101188.78;5018443;28;20465;-76
2021/07/16 07:57:13;;;;;;;24.48;4.90;;;;;;;27.25;75.16;101196.03;4997285;28;20026;-76
2021/07/16 07:59:40;;;;;;;18.67;4.70;;;;;;;27.48;72.94;101195.53;4998887;28;20033;-77
2021/07/16 08:02:06;;;;;;;17.00;4.65;;;;;;;27.57;72.83;101203.84;5015554;28;20128;-77
2021/07/16 08:04:31;;;;;;;18.33;5.07;;;;;;;27.76;73.23;101207.44;4991568;28;20618;-77
2021/07/16 08:06:57;;;;;;;17.50;4.60;;;;;;;27.62;72.60;101214.34;4999897;28;20065;-77
2021/07/16 08:09:22;;;;;;;22.50;5.18;;;;;;;27.61;71.59;101213.56;5004746;28;20033;-77
2021/07/16 08:11:48;;;;;;;20.38;4.85;;;;;;;27.59;71.99;101224.31;5005742;28;20095;-77
2021/07/16 08:14:13;;;;;;;20.20;5.43;;;;;;;27.37;73.21;101217.34;5001687;28;20029;-77
2021/07/16 08:16:45;;;;;;;21.83;5.28;;;;;;;27.32;72.52;101201.28;5028199;28;20393;-77
2021/07/16 08:19:10;;;;;;;19.20;5.03;;;;;;;27.44;72.94;101192.91;5013165;28;20034;-77
2021/07/16 08:21:36;;;;;;;18.65;4.90;;;;;;;27.59;72.66;101193.09;5008377;28;20390;-76
2021/07/16 08:24:01;;;;;;;19.13;5.53;;;;;;;27.58;73.88;101199.84;5014070;28;20112;-76
2021/07/16 08:26:26;;;;;;;18.00;4.75;;;;;;;27.75;73.94;101208.66;5002181;28;20037;-76
2021/07/16 08:28:52;;;;;;;17.00;4.70;;;;;;;27.86;71.82;101204.19;5018698;23;20053;-78
2021/07/16 08:31:17;;;;;;;22.70;5.35;;;;;;;27.92;72.76;101207.91;5002582;28;20038;-78
2021/07/16 08:33:43;;;;;;;19.70;5.20;;;;;;;27.90;73.85;101202.06;5006574;28;20091;-76
2021/07/16 08:36:08;;;;;;;18.42;4.97;;;;;;;28.00;73.42;101195.31;5030126;28;20088;-76
2021/07/16 08:38:34;;;;;;;19.55;5.43;;;;;;;28.09;71.98;101198.09;5005804;28;20026;-77
2021/07/16 08:40:59;;;;;;;19.67;5.32;;;;;;;28.31;71.15;101195.94;5006673;28;20490;-77
2021/07/16 08:43:27;;;;;;;16.73;4.90;;;;;;;28.40;71.20;101200.69;5010725;28;20048;-77
2021/07/16 08:45:52;;;;;;;24.58;5.70;;;;;;;28.55;71.46;101209.19;5021929;28;20038;-77
2021/07/16 08:48:18;;;;;;;22.92;5.28;;;;;;;28.64;71.33;101214.69;5008664;28;20021;-76
2021/07/16 08:50:44;;;;;;;17.23;5.50;;;;;;;28.70;70.80;101213.63;5010796;28;20048;-77
2021/07/16 08:53:12;;;;;;;20.48;5.93;;;;;;;28.91;70.75;101209.09;5004819;28;20034;-77
2021/07/16 08:55:37;;;;;;;20.33;5.50;;;;;;;28.92;72.28;101199.53;5007526;28;20366;-76
2021/07/16 08:58:05;;;;;;;16.00;5.03;;;;;;;29.04;69.75;101204.88;5007684;28;20033;-76
2021/07/16 09:00:32;;;;;;;15.25;5.10;;;;;;;29.22;71.15;101204.84;5009322;28;20030;-76
2021/07/16 09:02:59;;;;;;;20.75;5.15;;;;;;;29.20;67.36;101200.97;5005337;28;20021;-76
2021/07/16 09:05:40;;;;;;;17.67;5.85;;;;;;;29.07;68.59;101209.50;5008226;28;20041;-77
2021/07/16 09:08:16;;;;;;;19.45;4.93;;;;;;;29.09;69.37;101206.25;5005522;28;20565;-77
2021/07/16 09:10:47;;;;;;;21.77;5.15;;;;;;;29.17;70.22;101202.69;5012887;28;20077;-77
2021/07/16 09:13:14;;;;;;;20.20;5.45;;;;;;;29.36;69.09;101218.00;5001862;28;20022;-76
2021/07/16 09:15:46;;;;;;;24.08;5.97;;;;;;;29.09;66.85;101214.56;5008710;28;20827;-77
2021/07/16 09:18:14;;;;;;;24.55;5.78;;;;;;;29.53;68.73;101214.84;4987022;28;20881;-77
2021/07/16 09:20:40;;;;;;;20.50;5.80;;;;;;;29.61;67.22;101222.38;4998465;28;20056;-77
2021/07/16 09:23:14;;;;;;;19.45;5.47;;;;;;;29.80;65.79;101226.59;5003247;28;20042;-77
2021/07/16 09:25:42;;;;;;;20.90;6.15;;;;;;;29.98;66.18;101212.59;5005095;28;20070;-77
2021/07/16 09:28:23;;;;;;;14.38;5.22;;;;;;;30.04;65.90;101224.56;5008036;28;20030;-77
2021/07/16 09:30:49;;;;;;;19.15;6.15;;;;;;;30.08;65.50;101219.59;5007587;28;20030;-77
2021/07/16 09:33:16;;;;;;;16.98;5.68;;;;;;;30.21;65.87;101219.34;5002227;28;20100;-77
2021/07/16 09:35:43;;;;;;;17.58;5.53;;;;;;;30.31;65.80;101215.28;4999903;28;20048;-77
2021/07/16 09:38:12;;;;;;;18.65;5.90;;;;;;;30.50;67.73;101216.63;5008101;28;20058;-79
2021/07/16 09:40:40;;;;;;;19.38;5.53;;;;;;;30.55;64.19;101218.75;5007917;28;20056;-77
2021/07/16 09:43:07;;;;;;;15.30;5.20;;;;;;;30.51;65.54;101232.06;5004462;28;20658;-78
2021/07/16 09:45:37;;;;;;;18.75;5.22;;;;;;;30.53;64.18;101226.00;5007418;28;20038;-77
2021/07/16 09:48:21;;;;;;;19.00;5.30;;;;;;;30.24;65.50;101224.72;5008516;28;20049;-77
2021/07/16 09:50:48;;;;;;;16.63;6.07;;;;;;;30.31;64.43;101228.41;5006477;28;20038;-78
2021/07/16 09:53:16;;;;;;;22.15;5.35;;;;;;;30.37;66.12;101216.16;5006415;28;20022;-77
2021/07/16 09:55:43;;;;;;;16.92;5.78;;;;;;;30.46;65.72;101218.06;5019440;28;20423;-79
2021/07/16 09:58:26;;;;;;;17.85;5.32;;;;;;;30.52;65.14;101218.94;5007532;28;20034;-77
2021/07/16 10:00:52;;;;;;;16.30;5.10;;;;;;;30.53;63.88;101226.00;5007962;28;20395;-78
2021/07/16 10:03:19;;;;;;;20.75;5.68;;;;;;;30.32;65.25;101216.03;5009043;28;20053;-78
2021/07/16 10:05:46;;;;;;;18.10;5.78;;;;;;;30.35;66.28;101213.06;4996114;28;20581;-78
2021/07/16 10:08:12;;;;;;;19.25;5.95;;;;;;;30.69;64.96;101217.97;5011442;28;20037;-78
2021/07/16 10:10:38;;;;;;;17.70;5.72;;;;;;;30.59;63.57;101207.41;5010587;28;20038;-78
2021/07/16 10:13:07;;;;;;;15.75;5.28;;;;;;;30.75;63.85;101212.50;5005166;28;20076;-78
2021/07/16 10:15:34;;;;;;;14.60;5.10;;;;;;;30.90;64.38;101210.50;5008257;28;20124;-78
2021/07/16 10:18:02;;;;;;;17.88;5.15;;;;;;;31.29;62.55;101220.25;5007715;28;20541;-77
2021/07/16 10:20:28;;;;;;;16.80;5.38;;;;;;;31.44;61.25;101223.78;5006724;28;20030;-78
2021/07/16 10:22:54;;;;;;;17.10;5.50;;;;;;;31.43;59.88;101218.69;5005984;28;20109;-79
2021/07/16 10:25:21;;;;;;;15.98;4.75;;;;;;;31.48;60.35;101224.34;5006748;28;20102;-80
2021/07/16 10:27:47;;;;;;;16.10;5.28;;;;;;;31.49;59.33;101223.09;5012058;28;20076;-79
2021/07/16 10:30:15;;;;;;;15.95;5.15;;;;;;;31.57;61.58;101220.66;5011135;28;20065;-80
2021/07/16 10:32:45;;;;;;;16.58;5.50;;;;;;;31.25;59.87;101224.47;5013858;28;20505;-79
2021/07/16 10:35:20;;;;;;;15.40;5.10;;;;;;;31.25;62.02;101230.03;5010336;28;20022;-79
2021/07/16 10:37:47;;;;;;;18.48;5.57;;;;;;;31.39;63.23;101229.28;5021188;28;20130;-79
2021/07/16 10:40:31;;;;;;;15.82;5.85;;;;;;;31.29;61.11;101222.25;5004323;28;20049;-78
2021/07/16 10:42:56;;;;;;;14.02;5.15;;;;;;;31.32;63.30;101229.66;5012092;28;20117;-78
2021/07/16 10:45:37;;;;;;;14.63;5.20;;;;;;;31.09;62.73;101236.88;5004487;28;20108;-78
2021/07/16 10:48:11;;;;;;;14.55;5.35;;;;;;;30.88;62.78;101243.63;5019868;28;20030;-78
2021/07/16 10:50:38;;;;;;;16.02;5.70;;;;;;;30.92;63.64;101246.97;5033836;28;20045;-78
2021/07/16 10:53:08;;;;;;;18.05;6.18;;;;;;;30.83;63.89;101253.44;5012668;28;20030;-78
2021/07/16 10:55:37;;;;;;;15.55;5.10;;;;;;;30.59;64.70;101246.38;5031011;28;20092;-78
2021/07/16 10:58:30;;;;;;;16.33;5.60;;;;;;;30.50;65.09;101250.00;5012405;28;20114;-78
2021/07/16 11:00:55;;;;;;;17.58;5.72;;;;;;;30.43;64.65;101246.84;4981892;28;20042;-77
2021/07/16 11:03:22;;;;;;;13.13;5.10;;;;;;;30.40;65.80;101240.22;5003008;28;20097;-78
2021/07/16 11:05:48;;;;;;;16.98;5.05;;;;;;;30.59;65.67;101249.91;5016775;28;20040;-77
2021/07/16 11:08:27;;;;;;;17.75;5.85;;;;;;;30.53;65.97;101237.91;5009546;28;20564;-78
2021/07/16 11:11:00;;;;;;;16.75;6.45;;;;;;;30.71;64.92;101240.53;5016257;28;20042;-77
2021/07/16 11:13:56;;;;;;;13.15;5.53;;;;;;;30.76;64.64;101239.09;5004309;28;20495;-77
2021/07/16 11:16:29;;;;;;;18.02;5.80;;;;;;;30.94;64.81;101245.25;5013583;28;20037;-78